createdAt,value
2022-07-30T00:02:11.030Z,1.90
2022-07-30T00:05:14.572Z,1.70
2022-07-30T00:08:17.954Z,1.70
2022-07-30T00:11:25.933Z,1.80
2022-07-30T00:14:16.320Z,2.00
2022-07-30T00:17:29.370Z,1.40
2022-07-30T00:21:04.003Z,1.60
2022-07-30T00:24:08.865Z,1.80
2022-07-30T00:27:14.491Z,2.00
2022-07-30T00:30:22.866Z,1.90
2022-07-30T00:33:39.132Z,1.80
2022-07-30T00:36:48.522Z,2.10
2022-07-30T00:40:09.380Z,2.00
2022-07-30T00:43:35.921Z,1.90
2022-07-30T00:46:58.967Z,2.10
2022-07-30T00:50:28.144Z,2.00
2022-07-30T00:53:38.311Z,2.60
2022-07-30T00:56:51.596Z,1.80
2022-07-30T01:00:00.907Z,2.20
2022-07-30T01:03:14.258Z,2.70
2022-07-30T01:06:25.983Z,2.00
2022-07-30T01:10:11.726Z,1.90
2022-07-30T01:13:19.557Z,1.90
2022-07-30T01:16:23.709Z,1.90
2022-07-30T01:20:09.941Z,2.00
2022-07-30T01:23:57.801Z,2.00
2022-07-30T01:27:06.014Z,2.20
2022-07-30T01:30:45.770Z,2.40
2022-07-30T01:33:53.384Z,2.10
2022-07-30T01:37:21.398Z,3.70
2022-07-30T01:40:59.794Z,2.70
2022-07-30T01:44:58.213Z,2.50
2022-07-30T01:48:44.077Z,2.20
2022-07-30T01:52:40.858Z,2.60
2022-07-30T01:56:19.139Z,2.20
2022-07-30T01:59:58.732Z,2.60
2022-07-30T02:03:37.807Z,2.20
2022-07-30T02:07:40.722Z,2.70
2022-07-30T02:10:54.290Z,2.30
2022-07-30T02:14:18.181Z,2.40
2022-07-30T02:17:18.827Z,2.10
2022-07-30T02:20:44.128Z,1.90
2022-07-30T02:24:44.123Z,2.30
2022-07-30T02:28:11.133Z,2.30
2022-07-30T02:31:35.895Z,2.60
2022-07-30T02:35:13.488Z,3.30
2022-07-30T02:38:36.266Z,2.20
2022-07-30T02:41:54.323Z,2.20
2022-07-30T02:45:01.516Z,2.90
2022-07-30T02:48:06.807Z,3.10
2022-07-30T02:51:18.415Z,2.30
2022-07-30T02:54:36.865Z,2.60
2022-07-30T02:57:56.898Z,2.30
2022-07-30T03:01:23.401Z,3.20
2022-07-30T03:04:38.477Z,2.80
2022-07-30T03:08:06.391Z,2.30
2022-07-30T03:11:11.234Z,3.20
2022-07-30T03:14:49.309Z,2.20
2022-07-30T03:18:08.317Z,2.40
2022-07-30T03:21:17.033Z,2.50
2022-07-30T03:24:24.256Z,3.10
2022-07-30T03:27:52.948Z,2.10
2022-07-30T03:31:13.482Z,2.20
2022-07-30T03:34:40.103Z,2.60
2022-07-30T03:37:26.589Z,2.60
2022-07-30T03:40:50.282Z,2.60
2022-07-30T03:43:58.223Z,2.50
2022-07-30T03:46:46.025Z,2.80
2022-07-30T03:49:37.932Z,2.10
2022-07-30T03:53:09.641Z,2.30
2022-07-30T03:56:07.387Z,2.40
2022-07-30T04:03:21.325Z,2.90
2022-07-30T04:06:44.646Z,2.20
2022-07-30T04:09:39.645Z,1.90
2022-07-30T04:13:09.586Z,2.10
2022-07-30T04:16:41.112Z,2.70
2022-07-30T04:23:00.658Z,1.80
2022-07-30T04:26:24.538Z,2.40
2022-07-30T04:29:39.879Z,2.20
2022-07-30T04:36:07.976Z,2.10
2022-07-30T04:39:17.086Z,2.10
2022-07-30T04:42:21.146Z,3.20
2022-07-30T04:45:29.228Z,2.10
2022-07-30T04:48:30.558Z,1.90
2022-07-30T04:52:15.067Z,2.10
2022-07-30T04:55:41.049Z,2.20
2022-07-30T04:58:48.832Z,2.80
2022-07-30T05:02:02.793Z,2.00
2022-07-30T05:05:23.917Z,2.40
2022-07-30T05:08:47.951Z,2.40
2022-07-30T05:11:47.517Z,2.30
2022-07-30T05:14:58.283Z,2.60
2022-07-30T05:17:45.301Z,2.20
2022-07-30T05:20:57.817Z,2.10
2022-07-30T05:24:44.138Z,3.30
2022-07-30T05:27:34.874Z,3.40
2022-07-30T05:31:08.752Z,2.20
2022-07-30T05:34:35.949Z,2.60
2022-07-30T05:38:07.030Z,2.40
2022-07-30T05:42:00.867Z,3.10
2022-07-30T05:45:45.640Z,2.10
2022-07-30T05:49:05.806Z,3.00
2022-07-30T05:52:17.242Z,2.30
2022-07-30T05:55:50.980Z,2.80
2022-07-30T05:59:05.531Z,2.10
2022-07-30T06:02:12.279Z,3.10
2022-07-30T06:05:23.670Z,3.00
2022-07-30T06:08:42.408Z,2.40
2022-07-30T06:11:36.792Z,2.60
2022-07-30T06:14:42.275Z,2.60
2022-07-30T06:17:28.691Z,2.40
2022-07-30T06:20:36.370Z,2.80
2022-07-30T06:23:44.969Z,2.90
2022-07-30T06:27:14.370Z,2.60
2022-07-30T06:29:57.523Z,2.40
2022-07-30T06:32:45.711Z,2.40
2022-07-30T06:35:40.923Z,2.50
2022-07-30T06:38:30.387Z,2.40
2022-07-30T06:41:18.083Z,2.40
2022-07-30T06:44:11.018Z,2.70
2022-07-30T06:47:43.268Z,2.50
2022-07-30T06:50:31.812Z,2.70
2022-07-30T06:53:15.244Z,2.40
2022-07-30T06:56:19.358Z,2.90
2022-07-30T06:59:14.457Z,2.50
2022-07-30T07:02:36.505Z,2.10
2022-07-30T07:05:31.118Z,2.40
2022-07-30T07:08:16.808Z,2.80
2022-07-30T07:11:10.997Z,2.30
2022-07-30T07:14:19.987Z,2.60
2022-07-30T07:17:07.230Z,2.70
2022-07-30T07:20:22.449Z,2.30
2022-07-30T07:23:19.634Z,2.60
2022-07-30T07:26:07.922Z,2.40
2022-07-30T07:29:04.991Z,2.30
2022-07-30T07:32:07.208Z,2.40
2022-07-30T07:34:52.012Z,2.80
2022-07-30T07:37:55.403Z,2.50
2022-07-30T07:40:41.273Z,3.50
2022-07-30T07:43:27.153Z,2.60
2022-07-30T07:46:33.209Z,2.30
2022-07-30T07:49:18.771Z,2.30
2022-07-30T07:52:14.267Z,2.40
2022-07-30T07:55:33.567Z,2.70
2022-07-30T07:58:25.411Z,3.90
2022-07-30T08:01:10.120Z,2.00
2022-07-30T08:04:28.549Z,2.60
2022-07-30T08:07:27.258Z,2.40
2022-07-30T08:10:38.821Z,2.80
2022-07-30T08:13:56.513Z,2.50
2022-07-30T08:17:02.067Z,2.50
2022-07-30T08:20:09.295Z,3.10
2022-07-30T08:22:53.199Z,2.80
2022-07-30T08:25:42.332Z,3.90
2022-07-30T08:28:35.748Z,3.20
2022-07-30T08:31:20.596Z,3.60
2022-07-30T08:34:08.927Z,3.00
2022-07-30T08:36:56.197Z,3.60
2022-07-30T08:39:59.666Z,4.00
2022-07-30T08:42:43.484Z,3.40
2022-07-30T08:45:34.474Z,3.00
2022-07-30T08:48:28.924Z,3.60
2022-07-30T08:51:15.415Z,3.00
2022-07-30T08:54:39.239Z,4.30
2022-07-30T08:57:27.032Z,2.50
2022-07-30T09:00:11.508Z,2.50
2022-07-30T09:03:02.203Z,1.80
2022-07-30T09:05:48.608Z,1.90
2022-07-30T09:08:35.479Z,2.30
2022-07-30T09:11:19.164Z,2.40
2022-07-30T09:14:13.720Z,1.90
2022-07-30T09:17:20.113Z,1.70
2022-07-30T09:20:07.136Z,1.70
2022-07-30T09:22:56.881Z,1.80
2022-07-30T09:26:04.325Z,2.20
2022-07-30T09:29:20.151Z,1.50
2022-07-30T09:32:57.431Z,1.60
2022-07-30T09:36:21.987Z,1.30
2022-07-30T09:39:36.315Z,1.80
2022-07-30T09:42:33.076Z,2.60
2022-07-30T09:45:22.727Z,1.50
2022-07-30T09:48:22.848Z,2.40
2022-07-30T09:51:15.626Z,1.50
2022-07-30T09:54:05.588Z,2.00
2022-07-30T09:57:05.875Z,1.60
2022-07-30T10:00:26.346Z,1.00
2022-07-30T10:03:33.736Z,1.50
2022-07-30T10:06:46.824Z,1.60
2022-07-30T10:09:54.327Z,1.20
2022-07-30T10:12:41.204Z,0.90
2022-07-30T10:15:28.005Z,1.40
2022-07-30T10:18:11.948Z,1.10
2022-07-30T10:21:17.174Z,1.10
2022-07-30T10:24:27.551Z,1.60
2022-07-30T10:27:33.105Z,1.00
2022-07-30T10:30:40.720Z,1.20
2022-07-30T10:33:36.100Z,1.00
2022-07-30T10:36:25.891Z,0.90
2022-07-30T10:39:15.900Z,3.30
2022-07-30T10:42:15.123Z,1.70
2022-07-30T10:45:32.763Z,1.20
2022-07-30T10:48:32.701Z,1.90
2022-07-30T10:51:25.348Z,1.60
2022-07-30T10:54:39.572Z,1.10
2022-07-30T10:57:32.851Z,1.10
2022-07-30T11:00:25.500Z,1.30
2022-07-30T11:03:40.316Z,1.40
2022-07-30T11:06:31.512Z,1.30
2022-07-30T11:09:41.077Z,2.10
2022-07-30T11:12:47.433Z,1.00
2022-07-30T11:15:57.852Z,1.30
2022-07-30T11:19:56.542Z,1.10
2022-07-30T11:22:27.479Z,1.40
2022-07-30T11:25:50.625Z,2.80
2022-07-30T11:28:37.990Z,2.20
2022-07-30T11:31:55.701Z,2.10
2022-07-30T11:34:47.582Z,1.50
2022-07-30T11:37:32.059Z,1.90
2022-07-30T11:40:15.539Z,1.70
2022-07-30T11:43:44.916Z,1.80
2022-07-30T11:46:29.634Z,1.40
2022-07-30T11:49:20.900Z,1.70
2022-07-30T11:52:09.152Z,1.20
2022-07-30T11:54:54.259Z,1.50
2022-07-30T11:57:48.268Z,1.60
2022-07-30T12:00:41.191Z,1.60
2022-07-30T12:03:31.930Z,2.10
2022-07-30T12:06:38.339Z,1.80
2022-07-30T12:09:32.456Z,2.10
2022-07-30T12:12:31.280Z,2.30
2022-07-30T12:15:37.430Z,3.00
2022-07-30T12:18:30.610Z,1.90
2022-07-30T12:21:16.363Z,3.20
2022-07-30T12:24:07.662Z,3.30
2022-07-30T12:27:05.440Z,2.80
2022-07-30T12:29:52.231Z,2.50
2022-07-30T12:32:38.885Z,2.60
2022-07-30T12:35:22.016Z,2.70
2022-07-30T12:38:08.132Z,2.20
2022-07-30T12:41:02.144Z,1.60
2022-07-30T12:43:56.446Z,2.00
2022-07-30T12:46:44.308Z,2.40
2022-07-30T12:49:36.863Z,3.00
2022-07-30T12:52:34.476Z,2.00
2022-07-30T12:55:30.568Z,2.20
2022-07-30T12:58:14.159Z,2.10
2022-07-30T13:00:57.516Z,2.10
2022-07-30T13:03:45.868Z,2.10
2022-07-30T13:06:34.957Z,2.40
2022-07-30T13:09:22.245Z,2.50
2022-07-30T13:12:10.267Z,1.80
2022-07-30T13:14:59.008Z,2.10
2022-07-30T13:18:02.449Z,2.00
2022-07-30T13:20:58.548Z,2.20
2022-07-30T13:23:48.907Z,2.30
2022-07-30T13:26:40.127Z,2.20
2022-07-30T13:29:28.819Z,2.30
2022-07-30T13:32:21.500Z,2.10
2022-07-30T13:35:08.463Z,2.30
2022-07-30T13:38:01.551Z,2.50
2022-07-30T13:40:48.519Z,2.30
2022-07-30T13:43:52.231Z,2.60
2022-07-30T13:46:41.202Z,2.50
2022-07-30T13:49:39.275Z,2.80
2022-07-30T13:52:27.355Z,2.90
2022-07-30T13:55:47.009Z,2.50
2022-07-30T13:58:43.294Z,2.40
2022-07-30T14:01:41.669Z,2.10
2022-07-30T14:04:36.506Z,2.20
2022-07-30T14:10:13.082Z,1.80
2022-07-30T14:13:04.430Z,2.20
2022-07-30T14:15:50.039Z,1.70
2022-07-30T14:18:36.574Z,2.70
2022-07-30T14:21:20.106Z,2.30
2022-07-30T14:24:13.951Z,2.40
2022-07-30T14:26:58.320Z,2.90
2022-07-30T14:29:43.732Z,2.50
2022-07-30T14:32:32.860Z,2.50
2022-07-30T14:35:16.479Z,2.20
2022-07-30T14:37:59.731Z,2.30
2022-07-30T14:40:43.025Z,2.10
2022-07-30T14:43:28.118Z,2.40
2022-07-30T14:46:14.104Z,2.60
2022-07-30T14:48:57.260Z,2.70
2022-07-30T14:51:40.665Z,2.50
2022-07-30T14:54:24.048Z,2.60
2022-07-30T14:57:10.441Z,2.50
2022-07-30T14:59:53.775Z,4.00
2022-07-30T15:02:54.621Z,3.20
2022-07-30T15:05:52.243Z,3.00
2022-07-30T15:08:39.066Z,3.40
2022-07-30T15:11:25.636Z,3.10
2022-07-30T15:14:09.132Z,3.50
2022-07-30T15:16:56.798Z,2.80
2022-07-30T15:19:51.960Z,2.90
2022-07-30T15:25:23.889Z,3.00
2022-07-30T15:28:07.289Z,2.20
2022-07-30T15:30:52.897Z,2.80
2022-07-30T15:33:41.857Z,2.30
2022-07-30T15:36:25.373Z,2.60
2022-07-30T15:39:09.075Z,3.70
2022-07-30T15:41:54.224Z,2.70
2022-07-30T15:44:48.080Z,2.90
2022-07-30T15:47:35.031Z,2.90
2022-07-30T15:50:21.406Z,3.00
2022-07-30T15:53:12.562Z,3.20
2022-07-30T15:56:00.718Z,2.70
2022-07-30T15:58:46.839Z,2.70
2022-07-30T16:01:34.174Z,3.10
2022-07-30T16:04:18.898Z,2.70
2022-07-30T16:07:13.704Z,3.10
2022-07-30T16:10:02.094Z,2.90
2022-07-30T16:12:56.296Z,2.70
2022-07-30T16:15:40.348Z,3.10
2022-07-30T16:18:42.104Z,3.40
2022-07-30T16:21:30.732Z,3.40
2022-07-30T16:24:20.033Z,3.00
2022-07-30T16:27:15.864Z,3.20
2022-07-30T16:30:04.360Z,3.00
2022-07-30T16:33:00.996Z,2.90
2022-07-30T16:35:55.436Z,3.10
2022-07-30T16:38:48.934Z,3.30
2022-07-30T16:41:45.332Z,3.20
2022-07-30T16:44:44.213Z,3.40
2022-07-30T16:47:27.558Z,3.70
2022-07-30T16:50:23.547Z,3.70
2022-07-30T16:53:14.910Z,4.40
2022-07-30T16:56:11.033Z,4.10
2022-07-30T16:58:57.500Z,3.90
2022-07-30T17:01:54.267Z,4.20
2022-07-30T17:04:49.298Z,3.90
2022-07-30T17:07:37.632Z,4.80
2022-07-30T17:10:31.008Z,3.90
2022-07-30T17:13:26.262Z,4.00
2022-07-30T17:16:14.927Z,4.10
2022-07-30T17:19:13.003Z,3.70
2022-07-30T17:22:05.484Z,4.10
2022-07-30T17:24:54.500Z,3.60
2022-07-30T17:27:50.680Z,3.90
2022-07-30T17:30:47.202Z,3.50
2022-07-30T17:33:32.764Z,4.00
2022-07-30T17:36:38.508Z,4.10
2022-07-30T17:40:19.943Z,3.70
2022-07-30T17:42:48.090Z,4.20
2022-07-30T17:46:07.501Z,4.00
2022-07-30T17:49:21.920Z,4.50
2022-07-30T17:52:38.099Z,4.50
2022-07-30T17:55:57.678Z,3.40
2022-07-30T17:58:55.214Z,3.80
2022-07-30T18:02:27.396Z,3.80
2022-07-30T18:05:14.623Z,3.70
2022-07-30T18:08:09.162Z,4.00
2022-07-30T18:11:15.004Z,4.40
2022-07-30T18:14:06.988Z,4.20
2022-07-30T18:16:54.482Z,4.40
2022-07-30T18:19:57.082Z,3.90
2022-07-30T18:22:44.432Z,4.70
2022-07-30T18:25:51.732Z,4.70
2022-07-30T18:28:39.451Z,5.10
2022-07-30T18:31:30.412Z,5.60
2022-07-30T18:34:14.025Z,5.30
2022-07-30T18:37:06.545Z,6.00
2022-07-30T18:45:47.512Z,5.20
2022-07-30T18:48:53.862Z,4.90
2022-07-30T18:51:40.007Z,4.60
2022-07-30T18:54:25.974Z,3.70
2022-07-30T18:57:14.796Z,4.20
2022-07-30T19:00:00.625Z,5.30
2022-07-30T19:02:46.253Z,4.00
2022-07-30T19:05:51.733Z,4.50
2022-07-30T19:08:58.086Z,5.30
2022-07-30T19:12:01.774Z,4.10
2022-07-30T19:14:45.514Z,4.90
2022-07-30T19:17:46.448Z,6.10
2022-07-30T19:20:40.406Z,6.70
2022-07-30T19:23:26.583Z,7.30
2022-07-30T19:26:30.039Z,6.70
2022-07-30T19:29:16.124Z,5.60
2022-07-30T19:32:10.772Z,5.50
2022-07-30T19:34:57.065Z,5.20
2022-07-30T19:37:40.303Z,5.10
2022-07-30T19:40:27.055Z,5.50
2022-07-30T19:43:30.298Z,5.90
2022-07-30T19:46:16.778Z,4.90
2022-07-30T19:49:06.617Z,5.60
2022-07-30T19:52:23.269Z,5.70
2022-07-30T19:55:04.628Z,6.20
2022-07-30T19:58:16.071Z,5.00
2022-07-30T20:01:00.062Z,5.70
2022-07-30T20:03:49.805Z,7.40
2022-07-30T20:06:33.546Z,6.00
2022-07-30T20:09:22.794Z,5.80
2022-07-30T20:12:06.452Z,6.20
2022-07-30T20:15:00.723Z,6.00
2022-07-30T20:17:55.625Z,6.60
2022-07-30T20:20:41.754Z,5.90
2022-07-30T20:23:25.178Z,5.60
2022-07-30T20:26:12.410Z,5.70
2022-07-30T20:28:59.195Z,6.00
2022-07-30T20:31:44.784Z,6.10
2022-07-30T20:34:50.397Z,5.30
2022-07-30T20:37:40.279Z,5.50
2022-07-30T20:40:39.108Z,5.50
2022-07-30T20:43:46.073Z,6.20
2022-07-30T20:46:40.890Z,5.70
2022-07-30T20:49:42.288Z,5.40
2022-07-30T20:52:28.366Z,5.80
2022-07-30T20:55:26.495Z,5.40
2022-07-30T20:58:23.854Z,5.10
2022-07-30T21:01:19.225Z,5.40
2022-07-30T21:04:08.470Z,6.10
2022-07-30T21:07:36.723Z,5.50
2022-07-30T21:10:27.983Z,5.40
2022-07-30T21:13:11.174Z,5.80
2022-07-30T21:16:16.287Z,6.30
2022-07-30T21:19:25.951Z,5.60
2022-07-30T21:22:21.760Z,5.70
2022-07-30T21:25:33.452Z,5.00
2022-07-30T21:28:27.516Z,4.90
2022-07-30T21:31:14.377Z,5.50
2022-07-30T21:34:07.250Z,5.10
2022-07-30T21:36:57.454Z,5.10
2022-07-30T21:39:48.656Z,5.20
2022-07-30T21:43:12.514Z,5.10
2022-07-30T21:46:06.609Z,4.80
2022-07-30T21:49:12.688Z,5.20
2022-07-30T21:52:29.584Z,5.30
2022-07-30T21:55:53.196Z,5.20
2022-07-30T21:58:57.735Z,5.30
2022-07-30T22:01:52.641Z,4.90
2022-07-30T22:05:03.383Z,4.90
2022-07-30T22:08:07.684Z,4.60
2022-07-30T22:11:14.570Z,5.90
2022-07-30T22:14:10.628Z,5.10
2022-07-30T22:20:33.629Z,4.90
2022-07-30T22:23:58.179Z,5.40
2022-07-30T22:27:12.255Z,4.90
2022-07-30T22:30:06.093Z,4.90
2022-07-30T22:33:22.109Z,4.90
2022-07-30T22:36:27.829Z,4.60
2022-07-30T22:39:51.867Z,5.20
2022-07-30T22:42:49.505Z,5.30
2022-07-30T22:45:53.924Z,5.50
2022-07-30T22:48:50.323Z,4.90
2022-07-30T22:52:05.076Z,5.60
2022-07-30T22:54:54.992Z,5.10
2022-07-30T22:57:48.037Z,5.60
2022-07-30T23:00:44.622Z,5.70
2022-07-30T23:03:43.576Z,5.20
2022-07-30T23:06:34.134Z,5.60
2022-07-30T23:09:26.830Z,5.60
2022-07-30T23:12:18.753Z,6.10
2022-07-30T23:12:28.469Z,5.20
2022-07-30T23:15:23.544Z,5.60
2022-07-30T23:18:16.733Z,6.80
2022-07-30T23:21:15.253Z,6.50
2022-07-30T23:24:01.186Z,6.40
2022-07-30T23:27:07.105Z,6.80
2022-07-30T23:29:50.533Z,6.90
2022-07-30T23:32:55.538Z,7.00
2022-07-30T23:35:49.050Z,7.30
2022-07-30T23:38:54.080Z,7.10
2022-07-30T23:41:47.568Z,6.70
2022-07-30T23:44:39.507Z,6.90
2022-07-30T23:47:35.819Z,7.00
2022-07-30T23:50:58.609Z,7.80
2022-07-30T23:53:52.876Z,8.10
2022-07-30T23:57:05.592Z,7.50
